Terminal Aerodrome Forecast
Issued by NWS Melbourne, FL

Home | Current Version | Previous Version | Text Only | Print | Product List | Glossary On
Versions: 1 2 3 4 5 6 7 8 9 10 11 12
874
FTUS42 KMLB 221123
TAFDAB
TAF
KDAB 221123Z 2212/2312 VRB03KT P6SM FEW020 FEW200
     FM221500 06008KT P6SM FEW035
     FM230000 07006KT P6SM FEW030 BKN250
     FM230600 VRB03KT P6SM FEW020 SCT250=

USA.gov is the U.S. government's official web portal to all federal, state and local government web resources and services.